sensor_id;sensor_type;location;lat;lon;timestamp;temperature;humidity
70076;DHT22;63241;51.056;3.698;2023-07-29T00:00:40;17.70;99.90
70076;DHT22;63241;51.056;3.698;2023-07-29T00:09:33;17.50;99.90
70076;DHT22;63241;51.056;3.698;2023-07-29T00:12:20;17.50;99.90
70076;DHT22;63241;51.056;3.698;2023-07-29T00:15:07;17.50;99.90
70076;DHT22;63241;51.056;3.698;2023-07-29T00:21:39;17.50;99.90
70076;DHT22;63241;51.056;3.698;2023-07-29T00:24:26;17.40;99.90
70076;DHT22;63241;51.056;3.698;2023-07-29T00:27:11;17.40;99.90
70076;DHT22;63241;51.056;3.698;2023-07-29T00:30:10;17.40;99.90
70076;DHT22;63241;51.056;3.698;2023-07-29T08:53:49;34.80;41.10
70076;DHT22;63241;51.056;3.698;2023-07-29T08:56:36;32.70;44.30
70076;DHT22;63241;51.056;3.698;2023-07-29T08:59:23;31.30;47.90
70076;DHT22;63241;51.056;3.698;2023-07-29T09:06:20;29.30;52.10
70076;DHT22;63241;51.056;3.698;2023-07-29T09:09:08;28.20;55.00
70076;DHT22;63241;51.056;3.698;2023-07-29T09:11:54;27.40;57.20
70076;DHT22;63241;51.056;3.698;2023-07-29T12:40:20;40.40;35.70
70076;DHT22;63241;51.056;3.698;2023-07-29T12:42:56;40.10;35.90
70076;DHT22;63241;51.056;3.698;2023-07-29T12:45:43;39.60;35.00
70076;DHT22;63241;51.056;3.698;2023-07-29T12:48:51;38.30;37.10
70076;DHT22;63241;51.056;3.698;2023-07-29T12:51:52;37.20;39.40
70076;DHT22;63241;51.056;3.698;2023-07-29T12:54:38;36.20;41.00
70076;DHT22;63241;51.056;3.698;2023-07-29T12:57:29;35.30;42.60
70076;DHT22;63241;51.056;3.698;2023-07-29T13:00:36;34.80;43.20
70076;DHT22;63241;51.056;3.698;2023-07-29T13:03:55;34.80;44.40
70076;DHT22;63241;51.056;3.698;2023-07-29T13:06:42;35.70;43.50
70076;DHT22;63241;51.056;3.698;2023-07-29T13:09:28;35.30;42.60
70076;DHT22;63241;51.056;3.698;2023-07-29T13:12:14;35.30;42.90
70076;DHT22;63241;51.056;3.698;2023-07-29T13:15:35;34.80;43.90
70076;DHT22;63241;51.056;3.698;2023-07-29T13:18:56;34.50;45.20
70076;DHT22;63241;51.056;3.698;2023-07-29T13:21:42;33.90;44.40
70076;DHT22;63241;51.056;3.698;2023-07-29T13:24:29;32.90;45.90
70076;DHT22;63241;51.056;3.698;2023-07-29T13:31:19;30.80;48.80
70076;DHT22;63241;51.056;3.698;2023-07-29T13:34:05;30.00;58.90
70076;DHT22;63241;51.056;3.698;2023-07-29T19:48:18;18.50;87.70
70076;DHT22;63241;51.056;3.698;2023-07-29T19:51:04;18.40;88.20
70076;DHT22;63241;51.056;3.698;2023-07-29T19:53:51;18.40;89.10
70076;DHT22;63241;51.056;3.698;2023-07-29T20:00:10;18.20;90.00
70076;DHT22;63241;51.056;3.698;2023-07-29T20:02:56;18.10;90.50
70076;DHT22;63241;51.056;3.698;2023-07-29T20:05:43;18.00;90.90
70076;DHT22;63241;51.056;3.698;2023-07-29T20:12:09;17.70;91.30
70076;DHT22;63241;51.056;3.698;2023-07-29T20:14:54;17.60;91.50
70076;DHT22;63241;51.056;3.698;2023-07-29T20:17:42;17.40;91.80
70076;DHT22;63241;51.056;3.698;2023-07-29T20:20:28;17.40;92.60
70076;DHT22;63241;51.056;3.698;2023-07-29T20:23:37;17.30;93.10
70076;DHT22;63241;51.056;3.698;2023-07-29T21:42:35;16.20;99.90
70076;DHT22;63241;51.056;3.698;2023-07-29T22:57:13;15.70;99.90
70076;DHT22;63241;51.056;3.698;2023-07-29T23:00:02;15.70;99.90
70076;DHT22;63241;51.056;3.698;2023-07-29T23:13:31;15.60;99.90
70076;DHT22;63241;51.056;3.698;2023-07-29T23:16:17;15.60;99.90
70076;DHT22;63241;51.056;3.698;2023-07-29T23:19:03;15.60;99.90
70076;DHT22;63241;51.056;3.698;2023-07-29T23:25:38;15.50;99.90
70076;DHT22;63241;51.056;3.698;2023-07-29T23:28:23;15.50;99.90
70076;DHT22;63241;51.056;3.698;2023-07-29T23:31:12;15.50;99.90
70076;DHT22;63241;51.056;3.698;2023-07-29T23:34:09;15.40;99.90
70076;DHT22;63241;51.056;3.698;2023-07-29T23:37:21;15.40;99.90
70076;DHT22;63241;51.056;3.698;2023-07-29T23:40:10;15.40;99.90
70076;DHT22;63241;51.056;3.698;2023-07-29T23:42:56;15.40;99.90
70076;DHT22;63241;51.056;3.698;2023-07-29T23:45:42;15.40;99.90
70076;DHT22;63241;51.056;3.698;2023-07-29T23:55:15;15.30;99.90
70076;DHT22;63241;51.056;3.698;2023-07-29T23:58:01;15.20;99.90
